sensor_id;sensor_type;location;lat;lon;timestamp;pressure;altitude;pressure_sealevel;temperature;humidity
4598;BME280;62772;48.646;8.906;2023-02-01T00:04:58;96945.09;;;1.03;100.00
4598;BME280;62772;48.646;8.906;2023-02-01T00:09:58;96937.88;;;1.11;100.00
4598;BME280;62772;48.646;8.906;2023-02-01T00:14:59;96929.38;;;1.20;100.00
4598;BME280;62772;48.646;8.906;2023-02-01T00:19:59;96928.97;;;1.12;100.00
4598;BME280;62772;48.646;8.906;2023-02-01T00:25:00;96931.00;;;1.21;100.00
4598;BME280;62772;48.646;8.906;2023-02-01T00:30:00;96931.88;;;1.27;100.00
4598;BME280;62772;48.646;8.906;2023-02-01T00:35:01;96925.13;;;1.31;100.00
4598;BME280;62772;48.646;8.906;2023-02-01T00:40:01;96915.75;;;1.23;100.00
4598;BME280;62772;48.646;8.906;2023-02-01T00:45:02;96901.91;;;1.28;100.00
4598;BME280;62772;48.646;8.906;2023-02-01T00:50:03;96900.06;;;1.29;100.00
4598;BME280;62772;48.646;8.906;2023-02-01T00:55:03;96891.53;;;1.21;100.00
4598;BME280;62772;48.646;8.906;2023-02-01T01:00:04;96895.69;;;1.34;100.00
4598;BME280;62772;48.646;8.906;2023-02-01T01:05:05;96889.13;;;1.20;100.00
4598;BME280;62772;48.646;8.906;2023-02-01T01:10:06;96893.06;;;1.34;100.00
4598;BME280;62772;48.646;8.906;2023-02-01T01:15:07;96901.13;;;1.16;100.00
4598;BME280;62772;48.646;8.906;2023-02-01T01:20:08;96894.63;;;1.18;100.00
4598;BME280;62772;48.646;8.906;2023-02-01T01:25:09;96871.59;;;1.25;100.00
4598;BME280;62772;48.646;8.906;2023-02-01T01:30:12;96868.47;;;1.12;100.00
4598;BME280;62772;48.646;8.906;2023-02-01T01:35:15;96861.22;;;0.90;100.00
4598;BME280;62772;48.646;8.906;2023-02-01T01:40:15;96859.38;;;1.19;100.00
4598;BME280;62772;48.646;8.906;2023-02-01T01:50:38;96863.38;;;1.22;100.00
4598;BME280;62772;48.646;8.906;2023-02-01T01:55:43;96857.63;;;1.25;100.00
4598;BME280;62772;48.646;8.906;2023-02-01T02:00:46;96855.09;;;1.01;100.00
4598;BME280;62772;48.646;8.906;2023-02-01T02:05:49;96836.47;;;1.03;100.00
4598;BME280;62772;48.646;8.906;2023-02-01T02:10:51;96826.69;;;1.15;100.00
4598;BME280;62772;48.646;8.906;2023-02-01T02:21:10;96840.59;;;1.27;100.00
4598;BME280;62772;48.646;8.906;2023-02-01T02:37:18;96836.03;;;1.40;100.00
4598;BME280;62772;48.646;8.906;2023-02-01T02:42:38;96831.13;;;1.43;100.00
4598;BME280;62772;48.646;8.906;2023-02-01T02:53:23;96832.31;;;1.36;100.00
4598;BME280;62772;48.646;8.906;2023-02-01T02:58:45;96823.06;;;1.50;100.00
4598;BME280;62772;48.646;8.906;2023-02-01T03:04:05;96831.91;;;1.44;100.00
4598;BME280;62772;48.646;8.906;2023-02-01T03:09:20;96820.25;;;1.57;100.00
4598;BME280;62772;48.646;8.906;2023-02-01T03:14:25;96801.22;;;1.50;100.00
4598;BME280;62772;48.646;8.906;2023-02-01T03:19:40;96816.28;;;1.37;100.00
4598;BME280;62772;48.646;8.906;2023-02-01T03:24:52;96827.28;;;1.51;100.00
4598;BME280;62772;48.646;8.906;2023-02-01T03:29:59;96832.06;;;1.54;100.00
4598;BME280;62772;48.646;8.906;2023-02-01T03:35:02;96831.50;;;1.52;100.00
4598;BME280;62772;48.646;8.906;2023-02-01T03:40:08;96816.19;;;1.32;100.00
4598;BME280;62772;48.646;8.906;2023-02-01T03:45:17;96804.63;;;1.50;100.00
4598;BME280;62772;48.646;8.906;2023-02-01T03:50:22;96793.63;;;1.36;100.00
4598;BME280;62772;48.646;8.906;2023-02-01T03:55:26;96779.97;;;1.56;100.00
4598;BME280;62772;48.646;8.906;2023-02-01T04:00:27;96776.88;;;1.42;100.00
4598;BME280;62772;48.646;8.906;2023-02-01T04:05:30;96752.84;;;1.56;100.00
4598;BME280;62772;48.646;8.906;2023-02-01T04:10:39;96766.19;;;1.32;100.00
4598;BME280;62772;48.646;8.906;2023-02-01T04:15:40;96761.31;;;1.41;100.00
4598;BME280;62772;48.646;8.906;2023-02-01T04:20:42;96784.94;;;1.36;100.00
4598;BME280;62772;48.646;8.906;2023-02-01T04:25:42;96793.53;;;1.31;100.00
4598;BME280;62772;48.646;8.906;2023-02-01T04:30:43;96790.34;;;1.46;100.00
4598;BME280;62772;48.646;8.906;2023-02-01T04:35:45;96783.88;;;1.54;100.00
4598;BME280;62772;48.646;8.906;2023-02-01T04:40:47;96788.03;;;1.33;100.00
4598;BME280;62772;48.646;8.906;2023-02-01T04:45:48;96793.22;;;1.44;100.00
4598;BME280;62772;48.646;8.906;2023-02-01T04:50:49;96791.22;;;1.69;100.00
4598;BME280;62772;48.646;8.906;2023-02-01T04:55:49;96801.03;;;1.56;100.00
4598;BME280;62772;48.646;8.906;2023-02-01T05:00:50;96784.84;;;1.65;100.00
4598;BME280;62772;48.646;8.906;2023-02-01T05:05:51;96771.66;;;1.81;100.00
4598;BME280;62772;48.646;8.906;2023-02-01T05:10:53;96755.94;;;1.70;100.00
4598;BME280;62772;48.646;8.906;2023-02-01T05:15:54;96772.69;;;1.63;100.00
4598;BME280;62772;48.646;8.906;2023-02-01T05:20:55;96773.28;;;1.49;100.00
4598;BME280;62772;48.646;8.906;2023-02-01T05:26:00;96775.03;;;1.26;100.00
4598;BME280;62772;48.646;8.906;2023-02-01T05:31:00;96784.22;;;1.40;100.00
4598;BME280;62772;48.646;8.906;2023-02-01T05:36:01;96793.94;;;1.23;100.00
4598;BME280;62772;48.646;8.906;2023-02-01T05:41:01;96794.41;;;1.37;100.00
4598;BME280;62772;48.646;8.906;2023-02-01T05:46:02;96805.00;;;1.25;100.00
4598;BME280;62772;48.646;8.906;2023-02-01T05:51:02;96813.31;;;1.51;100.00
4598;BME280;62772;48.646;8.906;2023-02-01T05:56:03;96817.72;;;1.45;100.00
4598;BME280;62772;48.646;8.906;2023-02-01T06:01:04;96820.31;;;1.28;100.00
4598;BME280;62772;48.646;8.906;2023-02-01T06:06:05;96828.38;;;1.21;100.00
4598;BME280;62772;48.646;8.906;2023-02-01T06:11:06;96835.69;;;1.19;100.00
4598;BME280;62772;48.646;8.906;2023-02-01T06:16:07;96824.94;;;1.21;100.00
4598;BME280;62772;48.646;8.906;2023-02-01T06:21:08;96827.19;;;1.46;100.00
4598;BME280;62772;48.646;8.906;2023-02-01T06:26:09;96823.94;;;1.39;100.00
4598;BME280;62772;48.646;8.906;2023-02-01T06:31:09;96805.03;;;1.42;100.00
4598;BME280;62772;48.646;8.906;2023-02-01T06:36:11;96809.72;;;1.74;100.00
4598;BME280;62772;48.646;8.906;2023-02-01T06:41:16;96808.53;;;1.65;100.00
4598;BME280;62772;48.646;8.906;2023-02-01T06:46:16;96799.13;;;1.52;100.00
4598;BME280;62772;48.646;8.906;2023-02-01T06:51:27;96810.22;;;1.71;100.00
4598;BME280;62772;48.646;8.906;2023-02-01T06:56:28;96796.09;;;1.77;100.00
4598;BME280;62772;48.646;8.906;2023-02-01T07:01:29;96793.44;;;1.77;100.00
4598;BME280;62772;48.646;8.906;2023-02-01T07:06:29;96817.63;;;1.74;100.00
4598;BME280;62772;48.646;8.906;2023-02-01T07:11:30;96813.47;;;1.78;100.00
4598;BME280;62772;48.646;8.906;2023-02-01T07:16:30;96813.69;;;1.93;100.00
4598;BME280;62772;48.646;8.906;2023-02-01T07:21:31;96819.03;;;1.98;100.00
4598;BME280;62772;48.646;8.906;2023-02-01T07:26:31;96821.38;;;1.95;100.00
4598;BME280;62772;48.646;8.906;2023-02-01T07:31:32;96839.00;;;1.94;100.00
4598;BME280;62772;48.646;8.906;2023-02-01T07:36:33;96847.41;;;1.91;100.00
4598;BME280;62772;48.646;8.906;2023-02-01T07:41:34;96857.53;;;1.99;100.00
4598;BME280;62772;48.646;8.906;2023-02-01T07:46:35;96870.03;;;2.09;100.00
4598;BME280;62772;48.646;8.906;2023-02-01T07:51:36;96861.91;;;2.11;100.00
4598;BME280;62772;48.646;8.906;2023-02-01T07:56:36;96861.97;;;2.16;100.00
4598;BME280;62772;48.646;8.906;2023-02-01T08:01:37;96858.59;;;2.21;100.00
4598;BME280;62772;48.646;8.906;2023-02-01T08:06:38;96844.47;;;2.27;100.00
4598;BME280;62772;48.646;8.906;2023-02-01T08:11:39;96845.00;;;2.29;100.00
4598;BME280;62772;48.646;8.906;2023-02-01T08:16:39;96830.63;;;2.36;100.00
4598;BME280;62772;48.646;8.906;2023-02-01T08:21:40;96840.06;;;2.32;100.00
4598;BME280;62772;48.646;8.906;2023-02-01T08:26:40;96829.75;;;2.31;100.00
4598;BME280;62772;48.646;8.906;2023-02-01T08:31:40;96853.31;;;2.38;100.00
4598;BME280;62772;48.646;8.906;2023-02-01T08:36:41;96863.38;;;2.41;100.00
4598;BME280;62772;48.646;8.906;2023-02-01T08:41:42;96848.78;;;2.55;100.00
4598;BME280;62772;48.646;8.906;2023-02-01T08:47:03;96866.44;;;2.54;100.00
4598;BME280;62772;48.646;8.906;2023-02-01T08:52:04;96857.53;;;2.61;100.00
4598;BME280;62772;48.646;8.906;2023-02-01T08:57:04;96856.50;;;2.62;100.00
4598;BME280;62772;48.646;8.906;2023-02-01T09:02:05;96871.22;;;2.58;100.00
4598;BME280;62772;48.646;8.906;2023-02-01T09:07:05;96868.09;;;2.61;100.00
4598;BME280;62772;48.646;8.906;2023-02-01T09:12:06;96867.13;;;2.67;100.00
4598;BME280;62772;48.646;8.906;2023-02-01T09:17:07;96887.66;;;2.65;100.00
4598;BME280;62772;48.646;8.906;2023-02-01T09:22:07;96893.47;;;2.67;100.00
4598;BME280;62772;48.646;8.906;2023-02-01T09:27:08;96892.69;;;2.66;100.00
4598;BME280;62772;48.646;8.906;2023-02-01T09:32:09;96897.19;;;2.66;100.00
4598;BME280;62772;48.646;8.906;2023-02-01T09:37:10;96895.94;;;2.73;100.00
4598;BME280;62772;48.646;8.906;2023-02-01T09:47:46;96897.34;;;2.81;100.00
4598;BME280;62772;48.646;8.906;2023-02-01T09:52:59;96900.47;;;2.78;100.00
4598;BME280;62772;48.646;8.906;2023-02-01T09:58:05;96908.41;;;2.78;100.00
4598;BME280;62772;48.646;8.906;2023-02-01T10:03:11;96910.31;;;2.83;100.00
4598;BME280;62772;48.646;8.906;2023-02-01T10:08:29;96916.44;;;2.88;100.00
4598;BME280;62772;48.646;8.906;2023-02-01T10:13:46;96910.69;;;2.92;100.00
4598;BME280;62772;48.646;8.906;2023-02-01T10:19:00;96909.28;;;3.06;100.00
4598;BME280;62772;48.646;8.906;2023-02-01T10:24:35;96929.84;;;3.04;100.00
4598;BME280;62772;48.646;8.906;2023-02-01T10:29:40;96940.63;;;3.02;100.00
4598;BME280;62772;48.646;8.906;2023-02-01T10:34:42;96940.50;;;3.14;100.00
4598;BME280;62772;48.646;8.906;2023-02-01T10:39:48;96938.34;;;3.11;100.00
4598;BME280;62772;48.646;8.906;2023-02-01T10:44:49;96939.75;;;3.19;100.00
4598;BME280;62772;48.646;8.906;2023-02-01T10:50:13;96936.38;;;3.23;100.00
4598;BME280;62772;48.646;8.906;2023-02-01T11:00:45;96920.50;;;3.18;100.00
4598;BME280;62772;48.646;8.906;2023-02-01T11:05:47;96908.69;;;3.26;100.00
4598;BME280;62772;48.646;8.906;2023-02-01T11:10:58;96903.53;;;3.14;100.00
4598;BME280;62772;48.646;8.906;2023-02-01T11:16:02;96902.03;;;3.18;100.00
4598;BME280;62772;48.646;8.906;2023-02-01T11:21:04;96906.94;;;3.09;100.00
4598;BME280;62772;48.646;8.906;2023-02-01T11:26:25;96900.47;;;3.22;100.00
4598;BME280;62772;48.646;8.906;2023-02-01T11:31:27;96895.81;;;3.30;100.00
4598;BME280;62772;48.646;8.906;2023-02-01T11:36:31;96900.59;;;3.33;100.00
4598;BME280;62772;48.646;8.906;2023-02-01T11:41:32;96877.91;;;3.37;100.00
4598;BME280;62772;48.646;8.906;2023-02-01T11:46:34;96876.81;;;3.33;100.00
4598;BME280;62772;48.646;8.906;2023-02-01T11:57:25;96852.84;;;3.39;100.00
4598;BME280;62772;48.646;8.906;2023-02-01T12:13:49;96825.81;;;3.27;100.00
4598;BME280;62772;48.646;8.906;2023-02-01T12:19:21;96827.94;;;3.30;100.00
4598;BME280;62772;48.646;8.906;2023-02-01T12:24:42;96827.53;;;3.43;100.00
4598;BME280;62772;48.646;8.906;2023-02-01T12:35:44;96850.22;;;3.39;100.00
4598;BME280;62772;48.646;8.906;2023-02-01T12:41:16;96843.94;;;3.45;100.00
4598;BME280;62772;48.646;8.906;2023-02-01T12:46:25;96833.47;;;3.29;100.00
4598;BME280;62772;48.646;8.906;2023-02-01T12:51:36;96812.97;;;3.36;100.00
4598;BME280;62772;48.646;8.906;2023-02-01T12:56:52;96821.28;;;3.22;100.00
4598;BME280;62772;48.646;8.906;2023-02-01T13:02:10;96826.06;;;3.25;100.00
4598;BME280;62772;48.646;8.906;2023-02-01T13:07:18;96839.78;;;3.27;100.00
4598;BME280;62772;48.646;8.906;2023-02-01T13:12:29;96831.59;;;3.24;100.00
4598;BME280;62772;48.646;8.906;2023-02-01T13:17:33;96830.56;;;3.25;100.00
4598;BME280;62772;48.646;8.906;2023-02-01T13:22:51;96830.34;;;3.32;100.00
4598;BME280;62772;48.646;8.906;2023-02-01T13:27:56;96830.13;;;3.38;100.00
4598;BME280;62772;48.646;8.906;2023-02-01T13:33:13;96820.50;;;3.22;100.00
4598;BME280;62772;48.646;8.906;2023-02-01T13:43:54;96794.16;;;3.00;100.00
4598;BME280;62772;48.646;8.906;2023-02-01T13:49:01;96795.34;;;3.14;100.00
4598;BME280;62772;48.646;8.906;2023-02-01T13:54:04;96800.16;;;3.22;100.00
4598;BME280;62772;48.646;8.906;2023-02-01T14:04:49;96783.75;;;3.48;100.00
4598;BME280;62772;48.646;8.906;2023-02-01T14:09:50;96784.28;;;3.50;100.00
4598;BME280;62772;48.646;8.906;2023-02-01T14:14:50;96791.13;;;3.45;100.00
4598;BME280;62772;48.646;8.906;2023-02-01T14:25:33;96786.97;;;3.55;100.00
4598;BME280;62772;48.646;8.906;2023-02-01T14:30:35;96792.94;;;3.45;100.00
4598;BME280;62772;48.646;8.906;2023-02-01T14:35:36;96808.00;;;3.44;100.00
4598;BME280;62772;48.646;8.906;2023-02-01T14:40:36;96814.25;;;3.33;100.00
4598;BME280;62772;48.646;8.906;2023-02-01T14:50:39;96818.50;;;3.34;100.00
4598;BME280;62772;48.646;8.906;2023-02-01T15:00:58;96821.88;;;3.30;100.00
4598;BME280;62772;48.646;8.906;2023-02-01T15:05:59;96828.84;;;3.41;100.00
4598;BME280;62772;48.646;8.906;2023-02-01T15:11:10;96824.81;;;3.33;100.00
4598;BME280;62772;48.646;8.906;2023-02-01T15:16:15;96837.97;;;3.28;100.00
4598;BME280;62772;48.646;8.906;2023-02-01T15:21:21;96846.22;;;3.37;100.00
4598;BME280;62772;48.646;8.906;2023-02-01T15:26:27;96853.59;;;3.35;100.00
4598;BME280;62772;48.646;8.906;2023-02-01T15:31:40;96855.69;;;3.05;100.00
4598;BME280;62772;48.646;8.906;2023-02-01T15:36:42;96846.97;;;3.32;100.00
4598;BME280;62772;48.646;8.906;2023-02-01T15:41:45;96838.19;;;3.21;100.00
4598;BME280;62772;48.646;8.906;2023-02-01T15:46:49;96844.81;;;3.02;100.00
4598;BME280;62772;48.646;8.906;2023-02-01T15:51:50;96847.72;;;3.27;100.00
4598;BME280;62772;48.646;8.906;2023-02-01T15:56:53;96853.56;;;3.02;100.00
4598;BME280;62772;48.646;8.906;2023-02-01T16:01:54;96846.53;;;3.13;100.00
4598;BME280;62772;48.646;8.906;2023-02-01T16:07:03;96850.84;;;2.97;100.00
4598;BME280;62772;48.646;8.906;2023-02-01T16:17:38;96843.41;;;2.94;100.00
4598;BME280;62772;48.646;8.906;2023-02-01T16:22:39;96853.13;;;2.88;100.00
4598;BME280;62772;48.646;8.906;2023-02-01T16:27:39;96867.00;;;2.79;100.00
4598;BME280;62772;48.646;8.906;2023-02-01T16:32:39;96857.50;;;2.78;100.00
4598;BME280;62772;48.646;8.906;2023-02-01T16:37:40;96851.72;;;2.81;100.00
4598;BME280;62772;48.646;8.906;2023-02-01T16:42:40;96857.50;;;2.78;100.00
4598;BME280;62772;48.646;8.906;2023-02-01T16:47:47;96866.03;;;2.85;100.00
4598;BME280;62772;48.646;8.906;2023-02-01T16:52:49;96875.03;;;2.89;100.00
4598;BME280;62772;48.646;8.906;2023-02-01T16:57:50;96872.28;;;2.79;100.00
4598;BME280;62772;48.646;8.906;2023-02-01T17:02:51;96884.06;;;2.71;100.00
4598;BME280;62772;48.646;8.906;2023-02-01T17:07:52;96887.03;;;2.80;100.00
4598;BME280;62772;48.646;8.906;2023-02-01T17:12:52;96903.59;;;2.75;100.00
4598;BME280;62772;48.646;8.906;2023-02-01T17:17:53;96884.78;;;2.88;100.00
4598;BME280;62772;48.646;8.906;2023-02-01T17:22:58;96896.06;;;2.84;100.00
4598;BME280;62772;48.646;8.906;2023-02-01T17:27:58;96893.53;;;2.72;100.00
4598;BME280;62772;48.646;8.906;2023-02-01T17:32:59;96889.13;;;2.78;100.00
4598;BME280;62772;48.646;8.906;2023-02-01T17:37:59;96891.59;;;2.84;100.00
4598;BME280;62772;48.646;8.906;2023-02-01T17:43:00;96904.78;;;2.84;100.00
4598;BME280;62772;48.646;8.906;2023-02-01T17:48:03;96903.00;;;2.68;100.00
4598;BME280;62772;48.646;8.906;2023-02-01T17:53:04;96891.56;;;2.62;100.00
4598;BME280;62772;48.646;8.906;2023-02-01T17:58:10;96876.56;;;2.63;100.00
4598;BME280;62772;48.646;8.906;2023-02-01T18:03:25;96891.97;;;2.71;100.00
4598;BME280;62772;48.646;8.906;2023-02-01T18:08:27;96895.56;;;2.65;100.00
4598;BME280;62772;48.646;8.906;2023-02-01T18:13:29;96886.81;;;2.81;100.00
4598;BME280;62772;48.646;8.906;2023-02-01T18:18:30;96897.97;;;2.66;100.00
4598;BME280;62772;48.646;8.906;2023-02-01T18:23:33;96909.56;;;2.65;100.00
4598;BME280;62772;48.646;8.906;2023-02-01T18:28:34;96898.22;;;2.65;100.00
4598;BME280;62772;48.646;8.906;2023-02-01T18:33:34;96900.59;;;2.66;100.00
4598;BME280;62772;48.646;8.906;2023-02-01T18:38:35;96905.16;;;2.71;100.00
4598;BME280;62772;48.646;8.906;2023-02-01T18:43:35;96911.69;;;2.68;100.00
4598;BME280;62772;48.646;8.906;2023-02-01T18:48:36;96912.34;;;2.76;100.00
4598;BME280;62772;48.646;8.906;2023-02-01T18:53:37;96907.75;;;2.88;100.00
4598;BME280;62772;48.646;8.906;2023-02-01T18:58:38;96903.50;;;2.87;100.00
4598;BME280;62772;48.646;8.906;2023-02-01T19:03:38;96913.44;;;2.80;100.00
4598;BME280;62772;48.646;8.906;2023-02-01T19:08:39;96914.63;;;2.72;100.00
4598;BME280;62772;48.646;8.906;2023-02-01T19:13:39;96914.00;;;2.82;100.00
4598;BME280;62772;48.646;8.906;2023-02-01T19:18:40;96899.84;;;2.88;100.00
4598;BME280;62772;48.646;8.906;2023-02-01T19:23:41;96902.19;;;2.89;100.00
4598;BME280;62772;48.646;8.906;2023-02-01T19:28:42;96909.31;;;2.89;100.00
4598;BME280;62772;48.646;8.906;2023-02-01T19:33:47;96902.72;;;2.86;100.00
4598;BME280;62772;48.646;8.906;2023-02-01T19:38:47;96907.75;;;2.88;100.00
4598;BME280;62772;48.646;8.906;2023-02-01T19:43:48;96904.97;;;3.00;100.00
4598;BME280;62772;48.646;8.906;2023-02-01T19:48:48;96887.47;;;2.94;100.00
4598;BME280;62772;48.646;8.906;2023-02-01T19:53:48;96896.38;;;2.87;100.00
4598;BME280;62772;48.646;8.906;2023-02-01T19:58:50;96904.44;;;2.98;100.00
4598;BME280;62772;48.646;8.906;2023-02-01T20:03:51;96894.56;;;2.88;100.00
4598;BME280;62772;48.646;8.906;2023-02-01T20:08:52;96901.94;;;2.91;100.00
4598;BME280;62772;48.646;8.906;2023-02-01T20:13:52;96905.16;;;2.93;100.00
4598;BME280;62772;48.646;8.906;2023-02-01T20:18:53;96882.66;;;2.85;100.00
4598;BME280;62772;48.646;8.906;2023-02-01T20:23:53;96870.66;;;3.00;100.00
4598;BME280;62772;48.646;8.906;2023-02-01T20:28:54;96888.16;;;2.84;100.00
4598;BME280;62772;48.646;8.906;2023-02-01T20:33:59;96902.88;;;2.80;100.00
4598;BME280;62772;48.646;8.906;2023-02-01T20:39:03;96908.03;;;2.92;100.00
4598;BME280;62772;48.646;8.906;2023-02-01T20:44:04;96919.94;;;2.94;100.00
4598;BME280;62772;48.646;8.906;2023-02-01T20:49:05;96924.13;;;2.90;100.00
4598;BME280;62772;48.646;8.906;2023-02-01T20:54:05;96919.81;;;3.06;100.00
4598;BME280;62772;48.646;8.906;2023-02-01T20:59:07;96925.03;;;3.01;100.00
4598;BME280;62772;48.646;8.906;2023-02-01T21:04:11;96953.25;;;3.00;100.00
4598;BME280;62772;48.646;8.906;2023-02-01T21:09:11;96945.66;;;3.04;100.00
4598;BME280;62772;48.646;8.906;2023-02-01T21:14:12;96939.75;;;2.97;100.00
4598;BME280;62772;48.646;8.906;2023-02-01T21:19:12;96942.66;;;2.95;100.00
4598;BME280;62772;48.646;8.906;2023-02-01T21:24:13;96939.03;;;3.01;100.00
4598;BME280;62772;48.646;8.906;2023-02-01T21:29:14;96916.94;;;3.07;100.00
4598;BME280;62772;48.646;8.906;2023-02-01T21:34:15;96919.13;;;3.16;100.00
4598;BME280;62772;48.646;8.906;2023-02-01T21:39:15;96914.78;;;3.04;100.00
4598;BME280;62772;48.646;8.906;2023-02-01T21:44:17;96919.53;;;3.02;100.00
4598;BME280;62772;48.646;8.906;2023-02-01T21:49:17;96911.03;;;3.00;100.00
4598;BME280;62772;48.646;8.906;2023-02-01T21:54:18;96917.69;;;3.03;100.00
4598;BME280;62772;48.646;8.906;2023-02-01T21:59:18;96906.50;;;2.96;100.00
4598;BME280;62772;48.646;8.906;2023-02-01T22:04:19;96913.91;;;2.99;100.00
4598;BME280;62772;48.646;8.906;2023-02-01T22:09:21;96917.19;;;3.06;100.00
4598;BME280;62772;48.646;8.906;2023-02-01T22:14:22;96923.50;;;3.05;100.00
4598;BME280;62772;48.646;8.906;2023-02-01T22:19:23;96933.22;;;2.99;100.00
4598;BME280;62772;48.646;8.906;2023-02-01T22:24:23;96934.44;;;2.92;100.00
4598;BME280;62772;48.646;8.906;2023-02-01T22:29:24;96930.72;;;2.93;100.00
4598;BME280;62772;48.646;8.906;2023-02-01T22:34:26;96929.50;;;2.78;100.00
4598;BME280;62772;48.646;8.906;2023-02-01T22:39:27;96933.50;;;2.81;100.00
4598;BME280;62772;48.646;8.906;2023-02-01T22:44:27;96941.97;;;2.83;100.00
4598;BME280;62772;48.646;8.906;2023-02-01T22:49:28;96935.09;;;2.82;100.00
4598;BME280;62772;48.646;8.906;2023-02-01T22:54:28;96928.91;;;2.93;100.00
4598;BME280;62772;48.646;8.906;2023-02-01T22:59:28;96931.22;;;2.89;100.00
4598;BME280;62772;48.646;8.906;2023-02-01T23:04:29;96938.88;;;2.91;100.00
4598;BME280;62772;48.646;8.906;2023-02-01T23:09:29;96948.09;;;2.88;100.00
4598;BME280;62772;48.646;8.906;2023-02-01T23:14:30;96939.31;;;2.83;100.00
4598;BME280;62772;48.646;8.906;2023-02-01T23:19:30;96938.47;;;2.77;100.00
4598;BME280;62772;48.646;8.906;2023-02-01T23:24:31;96934.41;;;2.69;100.00
4598;BME280;62772;48.646;8.906;2023-02-01T23:29:31;96923.97;;;2.80;100.00
4598;BME280;62772;48.646;8.906;2023-02-01T23:34:31;96921.03;;;2.76;100.00
4598;BME280;62772;48.646;8.906;2023-02-01T23:39:32;96918.53;;;2.64;100.00
4598;BME280;62772;48.646;8.906;2023-02-01T23:44:33;96904.72;;;2.79;100.00
4598;BME280;62772;48.646;8.906;2023-02-01T23:49:33;96904.91;;;2.72;100.00
4598;BME280;62772;48.646;8.906;2023-02-01T23:54:33;96910.75;;;2.58;100.00
4598;BME280;62772;48.646;8.906;2023-02-01T23:59:34;96912.28;;;2.70;100.00
